sensor_id;sensor_type;location;lat;lon;timestamp;P1;durP1;ratioP1;P2;durP2;ratioP2
21505;SDS011;10914;48.886;9.394;2022-11-27T00:01:36;60.38;;;55.08;;
21505;SDS011;10914;48.886;9.394;2022-11-27T00:04:01;61.97;;;56.28;;
21505;SDS011;10914;48.886;9.394;2022-11-27T00:06:27;61.25;;;55.67;;
21505;SDS011;10914;48.886;9.394;2022-11-27T00:08:54;63.53;;;57.53;;
21505;SDS011;10914;48.886;9.394;2022-11-27T00:11:20;59.78;;;54.03;;
21505;SDS011;10914;48.886;9.394;2022-11-27T00:13:46;60.40;;;54.58;;
21505;SDS011;10914;48.886;9.394;2022-11-27T00:16:11;61.13;;;54.97;;
21505;SDS011;10914;48.886;9.394;2022-11-27T00:18:37;58.30;;;52.88;;
21505;SDS011;10914;48.886;9.394;2022-11-27T00:21:07;60.15;;;54.20;;
21505;SDS011;10914;48.886;9.394;2022-11-27T00:23:34;61.85;;;55.72;;
21505;SDS011;10914;48.886;9.394;2022-11-27T00:25:59;57.47;;;52.30;;
21505;SDS011;10914;48.886;9.394;2022-11-27T00:28:24;59.38;;;53.67;;
21505;SDS011;10914;48.886;9.394;2022-11-27T00:30:50;55.20;;;50.25;;
21505;SDS011;10914;48.886;9.394;2022-11-27T00:33:15;59.40;;;53.38;;
21505;SDS011;10914;48.886;9.394;2022-11-27T00:35:40;59.53;;;53.78;;
21505;SDS011;10914;48.886;9.394;2022-11-27T00:38:06;60.83;;;54.90;;
21505;SDS011;10914;48.886;9.394;2022-11-27T00:40:31;52.45;;;47.80;;
21505;SDS011;10914;48.886;9.394;2022-11-27T00:42:56;55.33;;;49.60;;
21505;SDS011;10914;48.886;9.394;2022-11-27T00:45:22;59.92;;;53.70;;
21505;SDS011;10914;48.886;9.394;2022-11-27T00:47:47;59.78;;;53.60;;
21505;SDS011;10914;48.886;9.394;2022-11-27T00:50:12;60.47;;;54.17;;
21505;SDS011;10914;48.886;9.394;2022-11-27T00:52:37;62.35;;;55.50;;
21505;SDS011;10914;48.886;9.394;2022-11-27T00:55:03;54.30;;;49.08;;
21505;SDS011;10914;48.886;9.394;2022-11-27T00:57:28;58.40;;;52.10;;
21505;SDS011;10914;48.886;9.394;2022-11-27T00:59:53;58.55;;;52.50;;
21505;SDS011;10914;48.886;9.394;2022-11-27T01:02:18;56.55;;;50.90;;
21505;SDS011;10914;48.886;9.394;2022-11-27T01:04:44;59.58;;;51.60;;
21505;SDS011;10914;48.886;9.394;2022-11-27T01:07:10;55.75;;;49.95;;
21505;SDS011;10914;48.886;9.394;2022-11-27T01:09:35;54.42;;;48.72;;
21505;SDS011;10914;48.886;9.394;2022-11-27T01:12:00;56.85;;;50.70;;
21505;SDS011;10914;48.886;9.394;2022-11-27T01:14:25;55.42;;;49.70;;
21505;SDS011;10914;48.886;9.394;2022-11-27T01:16:51;49.78;;;44.83;;
21505;SDS011;10914;48.886;9.394;2022-11-27T01:19:16;53.72;;;48.08;;
21505;SDS011;10914;48.886;9.394;2022-11-27T01:21:41;50.72;;;45.53;;
21505;SDS011;10914;48.886;9.394;2022-11-27T01:24:06;58.22;;;49.30;;
21505;SDS011;10914;48.886;9.394;2022-11-27T01:26:32;60.00;;;50.33;;
21505;SDS011;10914;48.886;9.394;2022-11-27T01:28:57;54.70;;;49.00;;
21505;SDS011;10914;48.886;9.394;2022-11-27T01:31:24;57.92;;;48.80;;
21505;SDS011;10914;48.886;9.394;2022-11-27T01:34:00;52.53;;;46.65;;
21505;SDS011;10914;48.886;9.394;2022-11-27T01:36:25;61.53;;;51.30;;
21505;SDS011;10914;48.886;9.394;2022-11-27T01:38:50;54.28;;;48.55;;
21505;SDS011;10914;48.886;9.394;2022-11-27T01:41:17;59.25;;;50.38;;
21505;SDS011;10914;48.886;9.394;2022-11-27T01:43:44;60.17;;;52.30;;
21505;SDS011;10914;48.886;9.394;2022-11-27T01:46:27;63.25;;;50.88;;
21505;SDS011;10914;48.886;9.394;2022-11-27T01:48:53;57.28;;;48.75;;
21505;SDS011;10914;48.886;9.394;2022-11-27T01:51:19;57.30;;;48.72;;
21505;SDS011;10914;48.886;9.394;2022-11-27T01:53:45;50.75;;;45.50;;
21505;SDS011;10914;48.886;9.394;2022-11-27T01:56:10;54.47;;;46.85;;
21505;SDS011;10914;48.886;9.394;2022-11-27T01:58:36;51.08;;;45.60;;
21505;SDS011;10914;48.886;9.394;2022-11-27T02:01:01;52.63;;;47.00;;
21505;SDS011;10914;48.886;9.394;2022-11-27T02:03:27;52.50;;;47.20;;
21505;SDS011;10914;48.886;9.394;2022-11-27T02:05:52;68.30;;;50.33;;
21505;SDS011;10914;48.886;9.394;2022-11-27T02:08:17;52.22;;;46.67;;
21505;SDS011;10914;48.886;9.394;2022-11-27T02:11:01;55.08;;;48.58;;
21505;SDS011;10914;48.886;9.394;2022-11-27T02:21:46;50.13;;;44.95;;
21505;SDS011;10914;48.886;9.394;2022-11-27T02:29:12;54.90;;;46.90;;
21505;SDS011;10914;48.886;9.394;2022-11-27T02:31:39;57.58;;;48.47;;
21505;SDS011;10914;48.886;9.394;2022-11-27T02:34:49;57.53;;;47.88;;
21505;SDS011;10914;48.886;9.394;2022-11-27T02:36:59;49.70;;;44.75;;
21505;SDS011;10914;48.886;9.394;2022-11-27T02:39:27;55.63;;;49.63;;
21505;SDS011;10914;48.886;9.394;2022-11-27T02:42:01;59.85;;;50.55;;
21505;SDS011;10914;48.886;9.394;2022-11-27T02:44:29;61.70;;;51.72;;
21505;SDS011;10914;48.886;9.394;2022-11-27T02:46:56;57.67;;;51.50;;
21505;SDS011;10914;48.886;9.394;2022-11-27T02:49:21;64.78;;;54.08;;
21505;SDS011;10914;48.886;9.394;2022-11-27T02:51:50;55.03;;;49.17;;
21505;SDS011;10914;48.886;9.394;2022-11-27T02:54:17;63.38;;;55.88;;
21505;SDS011;10914;48.886;9.394;2022-11-27T02:56:44;68.63;;;57.47;;
21505;SDS011;10914;48.886;9.394;2022-11-27T02:59:12;59.85;;;54.15;;
21505;SDS011;10914;48.886;9.394;2022-11-27T03:01:40;64.72;;;58.20;;
21505;SDS011;10914;48.886;9.394;2022-11-27T03:04:08;65.93;;;58.53;;
21505;SDS011;10914;48.886;9.394;2022-11-27T03:06:48;62.80;;;56.20;;
21505;SDS011;10914;48.886;9.394;2022-11-27T03:09:15;57.63;;;52.33;;
21505;SDS011;10914;48.886;9.394;2022-11-27T03:11:42;73.85;;;66.30;;
21505;SDS011;10914;48.886;9.394;2022-11-27T03:14:08;66.07;;;60.00;;
21505;SDS011;10914;48.886;9.394;2022-11-27T03:21:34;53.33;;;48.70;;
21505;SDS011;10914;48.886;9.394;2022-11-27T03:24:01;65.78;;;59.30;;
21505;SDS011;10914;48.886;9.394;2022-11-27T03:26:27;70.00;;;63.75;;
21505;SDS011;10914;48.886;9.394;2022-11-27T03:28:52;73.43;;;67.25;;
21505;SDS011;10914;48.886;9.394;2022-11-27T03:31:19;64.35;;;59.50;;
21505;SDS011;10914;48.886;9.394;2022-11-27T03:33:45;74.20;;;67.90;;
21505;SDS011;10914;48.886;9.394;2022-11-27T03:36:14;62.17;;;56.47;;
21505;SDS011;10914;48.886;9.394;2022-11-27T03:38:40;56.53;;;51.20;;
21505;SDS011;10914;48.886;9.394;2022-11-27T03:41:09;58.25;;;52.63;;
21505;SDS011;10914;48.886;9.394;2022-11-27T03:43:46;62.60;;;56.40;;
21505;SDS011;10914;48.886;9.394;2022-11-27T03:46:16;54.78;;;49.85;;
21505;SDS011;10914;48.886;9.394;2022-11-27T03:48:53;66.00;;;59.78;;
21505;SDS011;10914;48.886;9.394;2022-11-27T03:51:29;61.15;;;55.55;;
21505;SDS011;10914;48.886;9.394;2022-11-27T03:54:21;57.58;;;51.80;;
21505;SDS011;10914;48.886;9.394;2022-11-27T03:56:52;54.45;;;49.20;;
21505;SDS011;10914;48.886;9.394;2022-11-27T03:59:22;57.83;;;52.40;;
21505;SDS011;10914;48.886;9.394;2022-11-27T04:01:49;60.15;;;54.40;;
21505;SDS011;10914;48.886;9.394;2022-11-27T04:04:14;62.83;;;56.65;;
21505;SDS011;10914;48.886;9.394;2022-11-27T04:06:39;60.50;;;54.60;;
21505;SDS011;10914;48.886;9.394;2022-11-27T04:09:04;60.70;;;54.13;;
21505;SDS011;10914;48.886;9.394;2022-11-27T04:11:30;61.47;;;54.58;;
21505;SDS011;10914;48.886;9.394;2022-11-27T04:13:55;57.90;;;52.08;;
21505;SDS011;10914;48.886;9.394;2022-11-27T04:16:20;57.55;;;52.13;;
21505;SDS011;10914;48.886;9.394;2022-11-27T04:18:45;60.15;;;54.40;;
21505;SDS011;10914;48.886;9.394;2022-11-27T04:21:11;59.42;;;53.17;;
21505;SDS011;10914;48.886;9.394;2022-11-27T04:23:36;59.05;;;52.95;;
21505;SDS011;10914;48.886;9.394;2022-11-27T04:26:02;59.65;;;53.72;;
21505;SDS011;10914;48.886;9.394;2022-11-27T04:28:27;52.80;;;47.75;;
21505;SDS011;10914;48.886;9.394;2022-11-27T04:30:53;52.13;;;47.13;;
21505;SDS011;10914;48.886;9.394;2022-11-27T04:33:18;51.33;;;46.30;;
21505;SDS011;10914;48.886;9.394;2022-11-27T04:35:44;52.63;;;47.55;;
21505;SDS011;10914;48.886;9.394;2022-11-27T04:38:09;55.08;;;49.60;;
21505;SDS011;10914;48.886;9.394;2022-11-27T04:40:34;54.28;;;48.97;;
21505;SDS011;10914;48.886;9.394;2022-11-27T04:42:59;52.47;;;47.38;;
21505;SDS011;10914;48.886;9.394;2022-11-27T04:45:25;54.50;;;49.13;;
21505;SDS011;10914;48.886;9.394;2022-11-27T04:47:50;52.38;;;47.40;;
21505;SDS011;10914;48.886;9.394;2022-11-27T04:50:15;50.75;;;46.20;;
21505;SDS011;10914;48.886;9.394;2022-11-27T04:52:40;54.88;;;49.25;;
21505;SDS011;10914;48.886;9.394;2022-11-27T04:55:06;52.20;;;47.38;;
21505;SDS011;10914;48.886;9.394;2022-11-27T04:57:31;54.72;;;49.15;;
21505;SDS011;10914;48.886;9.394;2022-11-27T04:59:56;50.70;;;46.25;;
21505;SDS011;10914;48.886;9.394;2022-11-27T05:02:22;53.15;;;47.90;;
21505;SDS011;10914;48.886;9.394;2022-11-27T05:04:47;55.80;;;50.42;;
21505;SDS011;10914;48.886;9.394;2022-11-27T05:07:12;55.58;;;50.38;;
21505;SDS011;10914;48.886;9.394;2022-11-27T05:09:37;54.83;;;49.40;;
21505;SDS011;10914;48.886;9.394;2022-11-27T05:12:03;56.80;;;51.30;;
21505;SDS011;10914;48.886;9.394;2022-11-27T05:14:30;57.10;;;51.75;;
21505;SDS011;10914;48.886;9.394;2022-11-27T05:16:56;54.58;;;49.40;;
21505;SDS011;10914;48.886;9.394;2022-11-27T05:19:23;53.67;;;48.58;;
21505;SDS011;10914;48.886;9.394;2022-11-27T05:21:48;54.85;;;49.75;;
21505;SDS011;10914;48.886;9.394;2022-11-27T05:24:15;54.90;;;49.78;;
21505;SDS011;10914;48.886;9.394;2022-11-27T05:26:41;54.25;;;49.20;;
21505;SDS011;10914;48.886;9.394;2022-11-27T05:29:06;53.85;;;48.53;;
21505;SDS011;10914;48.886;9.394;2022-11-27T05:31:32;50.85;;;46.47;;
21505;SDS011;10914;48.886;9.394;2022-11-27T05:33:57;53.58;;;48.00;;
21505;SDS011;10914;48.886;9.394;2022-11-27T05:36:23;51.17;;;46.60;;
21505;SDS011;10914;48.886;9.394;2022-11-27T05:38:48;53.08;;;48.08;;
21505;SDS011;10914;48.886;9.394;2022-11-27T05:41:13;51.08;;;46.60;;
21505;SDS011;10914;48.886;9.394;2022-11-27T05:43:38;49.15;;;44.67;;
21505;SDS011;10914;48.886;9.394;2022-11-27T05:46:08;51.60;;;46.85;;
21505;SDS011;10914;48.886;9.394;2022-11-27T05:48:34;51.97;;;47.25;;
21505;SDS011;10914;48.886;9.394;2022-11-27T05:50:59;49.53;;;44.97;;
21505;SDS011;10914;48.886;9.394;2022-11-27T05:53:24;49.55;;;45.38;;
21505;SDS011;10914;48.886;9.394;2022-11-27T05:55:50;47.88;;;43.78;;
21505;SDS011;10914;48.886;9.394;2022-11-27T05:58:15;48.05;;;43.75;;
21505;SDS011;10914;48.886;9.394;2022-11-27T06:00:40;53.17;;;47.83;;
21505;SDS011;10914;48.886;9.394;2022-11-27T06:03:05;49.80;;;45.35;;
21505;SDS011;10914;48.886;9.394;2022-11-27T06:05:30;54.50;;;49.20;;
21505;SDS011;10914;48.886;9.394;2022-11-27T06:07:56;50.72;;;46.08;;
21505;SDS011;10914;48.886;9.394;2022-11-27T06:10:21;54.03;;;48.42;;
21505;SDS011;10914;48.886;9.394;2022-11-27T06:12:46;50.70;;;45.92;;
21505;SDS011;10914;48.886;9.394;2022-11-27T06:15:11;51.13;;;46.45;;
21505;SDS011;10914;48.886;9.394;2022-11-27T06:17:37;49.40;;;44.80;;
21505;SDS011;10914;48.886;9.394;2022-11-27T06:20:02;52.20;;;46.90;;
21505;SDS011;10914;48.886;9.394;2022-11-27T06:22:28;54.47;;;49.17;;
21505;SDS011;10914;48.886;9.394;2022-11-27T06:24:54;54.67;;;49.33;;
21505;SDS011;10914;48.886;9.394;2022-11-27T06:27:19;56.00;;;50.45;;
21505;SDS011;10914;48.886;9.394;2022-11-27T06:29:44;51.53;;;46.83;;
21505;SDS011;10914;48.886;9.394;2022-11-27T06:32:09;54.38;;;49.22;;
21505;SDS011;10914;48.886;9.394;2022-11-27T06:34:35;52.50;;;47.80;;
21505;SDS011;10914;48.886;9.394;2022-11-27T06:37:00;51.42;;;47.03;;
21505;SDS011;10914;48.886;9.394;2022-11-27T06:39:25;52.58;;;47.92;;
21505;SDS011;10914;48.886;9.394;2022-11-27T06:41:50;54.55;;;49.70;;
21505;SDS011;10914;48.886;9.394;2022-11-27T06:44:15;56.05;;;50.47;;
21505;SDS011;10914;48.886;9.394;2022-11-27T06:46:41;51.33;;;46.78;;
21505;SDS011;10914;48.886;9.394;2022-11-27T06:49:06;49.03;;;44.95;;
21505;SDS011;10914;48.886;9.394;2022-11-27T06:51:31;52.58;;;48.15;;
21505;SDS011;10914;48.886;9.394;2022-11-27T06:53:59;55.78;;;50.55;;
21505;SDS011;10914;48.886;9.394;2022-11-27T06:56:26;52.38;;;47.63;;
21505;SDS011;10914;48.886;9.394;2022-11-27T06:58:52;53.83;;;48.88;;
21505;SDS011;10914;48.886;9.394;2022-11-27T07:01:18;52.92;;;48.00;;
21505;SDS011;10914;48.886;9.394;2022-11-27T07:03:43;52.17;;;47.40;;
21505;SDS011;10914;48.886;9.394;2022-11-27T07:06:09;53.35;;;48.30;;
21505;SDS011;10914;48.886;9.394;2022-11-27T07:08:34;53.45;;;48.58;;
21505;SDS011;10914;48.886;9.394;2022-11-27T07:11:11;52.55;;;47.72;;
21505;SDS011;10914;48.886;9.394;2022-11-27T07:13:36;51.45;;;46.83;;
21505;SDS011;10914;48.886;9.394;2022-11-27T07:16:02;50.95;;;46.45;;
21505;SDS011;10914;48.886;9.394;2022-11-27T07:18:33;53.22;;;48.22;;
21505;SDS011;10914;48.886;9.394;2022-11-27T07:20:59;57.88;;;52.30;;
21505;SDS011;10914;48.886;9.394;2022-11-27T07:23:24;51.85;;;47.45;;
21505;SDS011;10914;48.886;9.394;2022-11-27T07:25:49;53.17;;;48.60;;
21505;SDS011;10914;48.886;9.394;2022-11-27T07:28:14;48.13;;;43.90;;
21505;SDS011;10914;48.886;9.394;2022-11-27T07:30:39;49.10;;;44.42;;
21505;SDS011;10914;48.886;9.394;2022-11-27T07:33:05;45.63;;;41.63;;
21505;SDS011;10914;48.886;9.394;2022-11-27T07:35:30;48.35;;;44.00;;
21505;SDS011;10914;48.886;9.394;2022-11-27T07:37:55;46.95;;;42.70;;
21505;SDS011;10914;48.886;9.394;2022-11-27T07:40:20;51.65;;;46.75;;
21505;SDS011;10914;48.886;9.394;2022-11-27T07:42:45;56.53;;;51.70;;
21505;SDS011;10914;48.886;9.394;2022-11-27T07:45:11;61.25;;;55.80;;
21505;SDS011;10914;48.886;9.394;2022-11-27T07:47:36;66.00;;;59.95;;
21505;SDS011;10914;48.886;9.394;2022-11-27T07:50:02;58.13;;;53.42;;
21505;SDS011;10914;48.886;9.394;2022-11-27T07:52:27;59.72;;;54.78;;
21505;SDS011;10914;48.886;9.394;2022-11-27T07:54:52;55.75;;;50.67;;
21505;SDS011;10914;48.886;9.394;2022-11-27T07:57:18;63.63;;;57.60;;
21505;SDS011;10914;48.886;9.394;2022-11-27T07:59:43;64.78;;;59.20;;
21505;SDS011;10914;48.886;9.394;2022-11-27T08:02:11;63.75;;;58.40;;
21505;SDS011;10914;48.886;9.394;2022-11-27T08:04:36;62.25;;;56.03;;
21505;SDS011;10914;48.886;9.394;2022-11-27T08:07:01;63.67;;;58.08;;
21505;SDS011;10914;48.886;9.394;2022-11-27T08:09:27;68.78;;;62.22;;
21505;SDS011;10914;48.886;9.394;2022-11-27T08:11:53;63.67;;;57.95;;
21505;SDS011;10914;48.886;9.394;2022-11-27T08:14:18;76.63;;;69.13;;
21505;SDS011;10914;48.886;9.394;2022-11-27T08:16:43;74.18;;;67.05;;
21505;SDS011;10914;48.886;9.394;2022-11-27T08:19:09;58.92;;;53.75;;
21505;SDS011;10914;48.886;9.394;2022-11-27T08:21:34;63.30;;;57.90;;
21505;SDS011;10914;48.886;9.394;2022-11-27T08:23:59;59.58;;;53.95;;
21505;SDS011;10914;48.886;9.394;2022-11-27T08:26:25;58.15;;;52.75;;
21505;SDS011;10914;48.886;9.394;2022-11-27T08:28:51;63.17;;;57.05;;
21505;SDS011;10914;48.886;9.394;2022-11-27T08:31:17;65.03;;;58.80;;
21505;SDS011;10914;48.886;9.394;2022-11-27T08:33:44;66.50;;;60.17;;
21505;SDS011;10914;48.886;9.394;2022-11-27T08:36:10;61.40;;;55.95;;
21505;SDS011;10914;48.886;9.394;2022-11-27T08:38:35;61.15;;;55.22;;
21505;SDS011;10914;48.886;9.394;2022-11-27T08:41:01;70.30;;;63.63;;
21505;SDS011;10914;48.886;9.394;2022-11-27T08:43:27;73.85;;;66.88;;
21505;SDS011;10914;48.886;9.394;2022-11-27T08:45:52;60.67;;;55.15;;
21505;SDS011;10914;48.886;9.394;2022-11-27T08:48:18;56.83;;;51.67;;
21505;SDS011;10914;48.886;9.394;2022-11-27T08:50:43;58.92;;;53.65;;
21505;SDS011;10914;48.886;9.394;2022-11-27T08:53:09;57.75;;;52.20;;
21505;SDS011;10914;48.886;9.394;2022-11-27T08:55:34;58.53;;;52.72;;
21505;SDS011;10914;48.886;9.394;2022-11-27T08:57:59;58.40;;;52.85;;
21505;SDS011;10914;48.886;9.394;2022-11-27T09:00:25;61.90;;;55.70;;
21505;SDS011;10914;48.886;9.394;2022-11-27T09:02:50;61.80;;;55.83;;
21505;SDS011;10914;48.886;9.394;2022-11-27T09:05:15;61.97;;;56.58;;
21505;SDS011;10914;48.886;9.394;2022-11-27T09:07:40;67.68;;;61.75;;
21505;SDS011;10914;48.886;9.394;2022-11-27T09:10:06;75.85;;;69.13;;
21505;SDS011;10914;48.886;9.394;2022-11-27T09:12:32;62.00;;;56.75;;
21505;SDS011;10914;48.886;9.394;2022-11-27T09:14:57;71.60;;;66.95;;
21505;SDS011;10914;48.886;9.394;2022-11-27T09:17:22;51.67;;;48.03;;
21505;SDS011;10914;48.886;9.394;2022-11-27T09:19:47;55.42;;;51.97;;
21505;SDS011;10914;48.886;9.394;2022-11-27T09:22:12;55.60;;;52.13;;
21505;SDS011;10914;48.886;9.394;2022-11-27T09:24:38;42.08;;;39.30;;
21505;SDS011;10914;48.886;9.394;2022-11-27T09:27:03;38.00;;;35.53;;
21505;SDS011;10914;48.886;9.394;2022-11-27T09:29:28;130.88;;;120.80;;
21505;SDS011;10914;48.886;9.394;2022-11-27T09:31:53;32.45;;;30.25;;
21505;SDS011;10914;48.886;9.394;2022-11-27T09:34:18;31.67;;;29.65;;
21505;SDS011;10914;48.886;9.394;2022-11-27T09:36:44;32.58;;;30.27;;
21505;SDS011;10914;48.886;9.394;2022-11-27T09:39:09;33.53;;;31.15;;
21505;SDS011;10914;48.886;9.394;2022-11-27T09:41:45;34.42;;;31.92;;
21505;SDS011;10914;48.886;9.394;2022-11-27T09:46:48;35.08;;;32.40;;
21505;SDS011;10914;48.886;9.394;2022-11-27T09:49:49;30.77;;;28.65;;
21505;SDS011;10914;48.886;9.394;2022-11-27T09:52:08;28.02;;;26.35;;
21505;SDS011;10914;48.886;9.394;2022-11-27T09:54:37;28.42;;;26.77;;
21505;SDS011;10914;48.886;9.394;2022-11-27T09:57:07;27.67;;;26.02;;
21505;SDS011;10914;48.886;9.394;2022-11-27T09:59:39;27.55;;;25.85;;
21505;SDS011;10914;48.886;9.394;2022-11-27T10:02:12;28.83;;;27.02;;
21505;SDS011;10914;48.886;9.394;2022-11-27T10:04:39;31.58;;;29.77;;
21505;SDS011;10914;48.886;9.394;2022-11-27T10:12:05;25.42;;;24.02;;
21505;SDS011;10914;48.886;9.394;2022-11-27T10:17:13;24.33;;;22.88;;
21505;SDS011;10914;48.886;9.394;2022-11-27T10:19:43;30.42;;;28.73;;
21505;SDS011;10914;48.886;9.394;2022-11-27T10:27:02;22.52;;;21.33;;
21505;SDS011;10914;48.886;9.394;2022-11-27T10:29:33;22.85;;;21.67;;
21505;SDS011;10914;48.886;9.394;2022-11-27T10:32:00;22.42;;;21.15;;
21505;SDS011;10914;48.886;9.394;2022-11-27T10:34:33;21.95;;;20.80;;
21505;SDS011;10914;48.886;9.394;2022-11-27T10:37:01;22.10;;;20.90;;
21505;SDS011;10914;48.886;9.394;2022-11-27T10:39:31;22.27;;;21.08;;
21505;SDS011;10914;48.886;9.394;2022-11-27T10:42:02;23.08;;;21.77;;
21505;SDS011;10914;48.886;9.394;2022-11-27T10:44:32;23.30;;;22.10;;
21505;SDS011;10914;48.886;9.394;2022-11-27T10:47:02;23.08;;;21.70;;
21505;SDS011;10914;48.886;9.394;2022-11-27T10:49:28;22.67;;;21.48;;
21505;SDS011;10914;48.886;9.394;2022-11-27T10:51:53;22.75;;;21.50;;
21505;SDS011;10914;48.886;9.394;2022-11-27T10:54:28;23.13;;;21.88;;
21505;SDS011;10914;48.886;9.394;2022-11-27T10:59:24;22.30;;;20.95;;
21505;SDS011;10914;48.886;9.394;2022-11-27T11:01:50;23.35;;;22.15;;
21505;SDS011;10914;48.886;9.394;2022-11-27T11:04:20;28.90;;;27.40;;
21505;SDS011;10914;48.886;9.394;2022-11-27T11:06:47;29.38;;;27.95;;
21505;SDS011;10914;48.886;9.394;2022-11-27T11:09:33;29.80;;;28.20;;
21505;SDS011;10914;48.886;9.394;2022-11-27T11:14:55;22.30;;;21.05;;
21505;SDS011;10914;48.886;9.394;2022-11-27T11:17:23;21.98;;;20.70;;
21505;SDS011;10914;48.886;9.394;2022-11-27T11:19:49;20.92;;;19.83;;
21505;SDS011;10914;48.886;9.394;2022-11-27T11:22:14;21.10;;;20.00;;
21505;SDS011;10914;48.886;9.394;2022-11-27T11:24:43;21.85;;;20.67;;
21505;SDS011;10914;48.886;9.394;2022-11-27T11:27:30;21.08;;;19.88;;
21505;SDS011;10914;48.886;9.394;2022-11-27T11:29:59;21.52;;;20.33;;
21505;SDS011;10914;48.886;9.394;2022-11-27T11:32:26;21.27;;;19.90;;
21505;SDS011;10914;48.886;9.394;2022-11-27T11:35:37;20.27;;;19.13;;
21505;SDS011;10914;48.886;9.394;2022-11-27T11:37:38;20.67;;;19.55;;
21505;SDS011;10914;48.886;9.394;2022-11-27T11:40:07;19.95;;;18.88;;
21505;SDS011;10914;48.886;9.394;2022-11-27T11:42:34;20.60;;;19.50;;
21505;SDS011;10914;48.886;9.394;2022-11-27T11:45:05;20.70;;;19.52;;
21505;SDS011;10914;48.886;9.394;2022-11-27T11:47:43;20.63;;;19.42;;
21505;SDS011;10914;48.886;9.394;2022-11-27T11:50:11;21.25;;;20.15;;
21505;SDS011;10914;48.886;9.394;2022-11-27T11:55:36;21.45;;;20.25;;
21505;SDS011;10914;48.886;9.394;2022-11-27T12:00:45;21.13;;;19.95;;
21505;SDS011;10914;48.886;9.394;2022-11-27T12:03:17;21.20;;;19.95;;
21505;SDS011;10914;48.886;9.394;2022-11-27T12:10:56;22.00;;;20.80;;
21505;SDS011;10914;48.886;9.394;2022-11-27T12:26:03;21.83;;;20.60;;
21505;SDS011;10914;48.886;9.394;2022-11-27T12:35:59;21.42;;;20.33;;
21505;SDS011;10914;48.886;9.394;2022-11-27T12:43:24;22.80;;;21.52;;
21505;SDS011;10914;48.886;9.394;2022-11-27T12:48:26;25.10;;;23.80;;
21505;SDS011;10914;48.886;9.394;2022-11-27T12:50:56;26.40;;;25.10;;
21505;SDS011;10914;48.886;9.394;2022-11-27T12:53:25;27.70;;;26.30;;
21505;SDS011;10914;48.886;9.394;2022-11-27T12:55:58;27.08;;;25.40;;
21505;SDS011;10914;48.886;9.394;2022-11-27T12:58:27;22.67;;;21.40;;
21505;SDS011;10914;48.886;9.394;2022-11-27T13:00:56;21.65;;;20.45;;
21505;SDS011;10914;48.886;9.394;2022-11-27T13:06:08;21.83;;;20.73;;
21505;SDS011;10914;48.886;9.394;2022-11-27T13:11:19;23.02;;;21.83;;
21505;SDS011;10914;48.886;9.394;2022-11-27T13:14:33;23.52;;;22.38;;
21505;SDS011;10914;48.886;9.394;2022-11-27T13:16:37;24.00;;;22.80;;
21505;SDS011;10914;48.886;9.394;2022-11-27T13:21:37;23.80;;;22.60;;
21505;SDS011;10914;48.886;9.394;2022-11-27T13:24:03;23.25;;;21.85;;
21505;SDS011;10914;48.886;9.394;2022-11-27T13:28:54;23.60;;;22.40;;
21505;SDS011;10914;48.886;9.394;2022-11-27T13:31:22;23.13;;;21.92;;
21505;SDS011;10914;48.886;9.394;2022-11-27T13:33:49;23.17;;;21.98;;
21505;SDS011;10914;48.886;9.394;2022-11-27T13:36:19;23.80;;;22.50;;
21505;SDS011;10914;48.886;9.394;2022-11-27T13:38:50;23.75;;;22.55;;
21505;SDS011;10914;48.886;9.394;2022-11-27T13:41:23;24.30;;;23.10;;
21505;SDS011;10914;48.886;9.394;2022-11-27T13:43:48;25.40;;;24.00;;
21505;SDS011;10914;48.886;9.394;2022-11-27T13:46:19;25.50;;;24.10;;
21505;SDS011;10914;48.886;9.394;2022-11-27T13:48:47;26.20;;;24.83;;
21505;SDS011;10914;48.886;9.394;2022-11-27T13:51:20;27.40;;;25.95;;
21505;SDS011;10914;48.886;9.394;2022-11-27T13:53:46;27.98;;;26.58;;
21505;SDS011;10914;48.886;9.394;2022-11-27T13:56:11;29.88;;;28.38;;
21505;SDS011;10914;48.886;9.394;2022-11-27T13:58:37;29.80;;;28.20;;
21505;SDS011;10914;48.886;9.394;2022-11-27T14:01:20;29.80;;;28.30;;
21505;SDS011;10914;48.886;9.394;2022-11-27T14:03:45;33.00;;;31.35;;
21505;SDS011;10914;48.886;9.394;2022-11-27T14:06:18;33.17;;;31.48;;
21505;SDS011;10914;48.886;9.394;2022-11-27T14:08:48;31.10;;;29.52;;
21505;SDS011;10914;48.886;9.394;2022-11-27T14:11:14;32.85;;;31.15;;
21505;SDS011;10914;48.886;9.394;2022-11-27T14:13:43;30.65;;;29.05;;
21505;SDS011;10914;48.886;9.394;2022-11-27T14:18:50;24.65;;;23.42;;
21505;SDS011;10914;48.886;9.394;2022-11-27T14:21:58;23.85;;;22.67;;
21505;SDS011;10914;48.886;9.394;2022-11-27T14:26:50;24.35;;;23.05;;
21505;SDS011;10914;48.886;9.394;2022-11-27T14:29:15;24.23;;;22.98;;
21505;SDS011;10914;48.886;9.394;2022-11-27T14:31:43;24.42;;;23.13;;
21505;SDS011;10914;48.886;9.394;2022-11-27T14:34:30;25.13;;;23.65;;
21505;SDS011;10914;48.886;9.394;2022-11-27T14:36:56;25.00;;;23.70;;
21505;SDS011;10914;48.886;9.394;2022-11-27T14:39:27;25.05;;;23.67;;
21505;SDS011;10914;48.886;9.394;2022-11-27T14:41:59;24.80;;;23.50;;
21505;SDS011;10914;48.886;9.394;2022-11-27T14:44:25;24.65;;;23.27;;
21505;SDS011;10914;48.886;9.394;2022-11-27T14:46:50;24.13;;;22.92;;
21505;SDS011;10914;48.886;9.394;2022-11-27T14:49:17;24.52;;;23.23;;
21505;SDS011;10914;48.886;9.394;2022-11-27T14:51:43;23.58;;;22.42;;
21505;SDS011;10914;48.886;9.394;2022-11-27T14:54:12;23.83;;;22.63;;
21505;SDS011;10914;48.886;9.394;2022-11-27T14:56:41;23.58;;;22.38;;
21505;SDS011;10914;48.886;9.394;2022-11-27T14:59:12;23.95;;;22.75;;
21505;SDS011;10914;48.886;9.394;2022-11-27T15:01:39;23.92;;;22.60;;
21505;SDS011;10914;48.886;9.394;2022-11-27T15:04:05;24.30;;;23.00;;
21505;SDS011;10914;48.886;9.394;2022-11-27T15:06:34;23.52;;;22.33;;
21505;SDS011;10914;48.886;9.394;2022-11-27T15:09:03;23.63;;;22.42;;
21505;SDS011;10914;48.886;9.394;2022-11-27T15:11:28;24.50;;;23.10;;
21505;SDS011;10914;48.886;9.394;2022-11-27T15:13:55;24.05;;;22.85;;
21505;SDS011;10914;48.886;9.394;2022-11-27T15:16:21;24.17;;;22.98;;
21505;SDS011;10914;48.886;9.394;2022-11-27T15:18:53;24.95;;;23.65;;
21505;SDS011;10914;48.886;9.394;2022-11-27T15:21:19;24.88;;;23.58;;
21505;SDS011;10914;48.886;9.394;2022-11-27T15:23:46;26.30;;;24.90;;
21505;SDS011;10914;48.886;9.394;2022-11-27T15:26:12;26.38;;;24.95;;
21505;SDS011;10914;48.886;9.394;2022-11-27T15:28:51;27.02;;;25.58;;
21505;SDS011;10914;48.886;9.394;2022-11-27T15:31:30;27.85;;;26.35;;
21505;SDS011;10914;48.886;9.394;2022-11-27T15:34:03;27.48;;;25.98;;
21505;SDS011;10914;48.886;9.394;2022-11-27T15:36:47;29.20;;;27.55;;
21505;SDS011;10914;48.886;9.394;2022-11-27T15:44:15;29.08;;;27.48;;
21505;SDS011;10914;48.886;9.394;2022-11-27T15:46:40;30.00;;;28.40;;
21505;SDS011;10914;48.886;9.394;2022-11-27T15:49:15;29.15;;;27.63;;
21505;SDS011;10914;48.886;9.394;2022-11-27T15:51:40;28.85;;;27.25;;
21505;SDS011;10914;48.886;9.394;2022-11-27T15:54:06;28.83;;;27.23;;
21505;SDS011;10914;48.886;9.394;2022-11-27T15:56:31;28.98;;;27.38;;
21505;SDS011;10914;48.886;9.394;2022-11-27T15:58:56;29.00;;;27.38;;
21505;SDS011;10914;48.886;9.394;2022-11-27T16:01:22;29.70;;;27.83;;